Hlavní strana
METAR-TAF:

METAR-TAF

Letiště :

Cartagena, Kolumbie

zeměpisná šířka: 10-27N, zeměpisná délka: 075-31W, výška: 1 m

Aktuální stav počasí

Zpráva byla vytvořena před 56 minutami, v 09:00 UTC
Bezvětří
Teplota 25°C
Vlhkost vzduchu 94%
Tlak 1008 hPa
Viditelnost 10 km a více
Žádná oblačnost pod 1500 m, nevyskytují se cumulonimby.

METAR: SKCG 300900Z 00000KT CAVOK 25/24 A2976

Čas: 04:56 (09:56 UTC)

Předpověď počasí

Zpráva byla vytvořena před 5 hodinami a 26 minutami, v 04:30 UTC
Předpověď platná od 30 v 06 UTC do 31 v 06 UTC
Severoseverovýchodní vítr 6 kt
Viditelnost 10 km a více
Žádná oblačnost pod 1500 m, nevyskytují se cumulonimby.
Změna
od 30 v 15 UTC do 30 v 17 UTC
Severoseverozápadní vítr 16 kt
Změna
od 31 v 02 UTC do 31 v 04 UTC
Severovýchodní vítr 5 kt

TAF: SKCG 300430Z 3006/3106 03006KT CAVOK BECMG 3015/3017 34016KT BECMG 3102/3104 04005KT TX33/3019Z TN24/3010Z

Stav a předpovědi počasí z více než 4 000 letišť (zprávy METAR a TAF).

Červené a žluté tečky na mapě představují dostupné meteorologické stanice.

Když kurzor umístíte na tečku, zobrazí se název stanice.

Pak kliknutím zobrazíte stav a předpověď počasí.

Chcete-li změnit mapu, kliknutím na zelené tlačítko se znaménkem +mapu přiblížíte, kliknutím na zelené tlačítko se znaménkem – mapu oddálíte a kliknutím na zelené šipky přejdete na sousední mapy.


METAR-TAF: